Airfield :
LOGIN :

Register | Disclaimer

   EN    FR    IT 

 










Legend :    VFR   Marginal VFR   IFR   Intensive IFR   Very Intensive IFR
Visi :
Ceiling :
>= 8 km
>= 3000ft
5 to 8 km
1000 to 3000 ft
1500m to 5 km
500 to 1000 ft
800 to 1500m
200 to 500 ft
< 800m
< 200 ft
Symbols :   Thunderstorms  Fog  Heavy snow  Heavy precipitations  Wind > 20 kt
SIGMETs :     Misc.  Thunderstorms  Icing  Turbulence  Mountain Waves  Volcanic Ashes






- Airport Elevation : 13 ft
- IATA code : LYX


EGMD - Lydd

CURRENT METAR :
  • 261920Z AUTO 19021G31KT 6000 -RA BKN010/// BKN014/// OVC021/// 10/09 Q1008 RERA

EXPIRED METARs :
  • 261850Z AUTO 19020KT 2700 +RA BKN010/// OVC014/// 09/09 Q1008
  • 261820Z 19017KT 5000 RA BKN008 BKN013 OVC020 09/09 Q1008
  • 261750Z 19020KT 6000 -RA SCT013 BKN018 BKN036 09/09 Q1009 RERA
  • 261720Z 20020KT 7000 SHRA BKN014 OVC019 10/09 Q1009

TAF TAF EGMD
Valid from the 26 at 18:00 until the 27 at 03:00 UTC


261702Z 2618/2703 21020KT 9999 SCT012
TEMPO 2618/2621 8000 -RA BKN012
PROB40
TEMPO 2618/2621 3000 RA BKN006
PROB30
TEMPO 2618/2622 22023G33KT
PROB30
TEMPO 2621/2624 4000 SHRA BKN008
BECMG 2622/2701 24015KT
ATIS : +44 1797 322 422



MET'MAP, your aeronautical weather chart ! - Copyright ORBIFLY December 2007 - Disclaimer

ORBIFLY MET'MAP TEAM :

Programming & Development : Alexandra Zaïnal
Concept & original design : Baudouin d'Aumeries
Assistance for programming : Marc-Olivier Méhu
Technical & hardware support : Manuel Goepfert

Contact : metmap@orbifly.com




SOURCES & CREDITS :

   NOAA